createdAt,value
2019-03-06T00:01:53.074Z,3.40
2019-03-06T00:04:23.162Z,3.20
2019-03-06T00:06:53.213Z,3.10
2019-03-06T00:09:26.445Z,3.20
2019-03-06T00:11:56.740Z,3.20
2019-03-06T00:14:26.868Z,3.10
2019-03-06T00:16:57.285Z,3.10
2019-03-06T00:19:27.408Z,3.00
2019-03-06T00:21:57.589Z,3.10
2019-03-06T00:24:27.691Z,3.10
2019-03-06T00:26:57.831Z,3.10
2019-03-06T00:29:27.969Z,3.10
2019-03-06T00:31:57.993Z,3.00
2019-03-06T00:34:28.150Z,3.00
2019-03-06T00:36:59.807Z,3.00
2019-03-06T00:39:32.933Z,3.00
2019-03-06T00:42:02.983Z,3.00
2019-03-06T00:44:33.062Z,2.80
2019-03-06T00:47:03.126Z,2.70
2019-03-06T00:49:33.337Z,2.60
2019-03-06T00:52:03.380Z,2.40
2019-03-06T00:54:33.394Z,2.40
2019-03-06T00:57:03.284Z,2.50
2019-03-06T00:59:33.329Z,2.60
2019-03-06T01:02:03.703Z,3.00
2019-03-06T01:04:33.774Z,2.90
2019-03-06T01:07:03.771Z,2.90
2019-03-06T01:09:33.761Z,2.80
2019-03-06T01:12:03.920Z,2.70
2019-03-06T01:14:34.048Z,2.80
2019-03-06T01:17:04.058Z,2.70
2019-03-06T01:19:34.061Z,2.60
2019-03-06T01:22:03.951Z,2.50
2019-03-06T01:24:33.885Z,2.50
2019-03-06T01:27:04.040Z,2.50
2019-03-06T01:29:34.088Z,2.50
2019-03-06T01:32:04.093Z,2.50
2019-03-06T01:34:38.306Z,2.70
2019-03-06T01:37:09.977Z,2.70
2019-03-06T01:39:57.851Z,2.60
2019-03-06T01:42:29.497Z,2.70
2019-03-06T01:44:59.557Z,2.90
2019-03-06T01:47:29.544Z,2.70
2019-03-06T01:50:00.868Z,2.50
2019-03-06T01:52:30.980Z,2.40
2019-03-06T01:55:01.504Z,2.40
2019-03-06T01:57:31.479Z,2.40
2019-03-06T02:00:01.566Z,2.30
2019-03-06T02:02:33.009Z,2.20
2019-03-06T02:05:05.771Z,2.30
2019-03-06T02:07:35.775Z,2.10
2019-03-06T02:10:08.688Z,2.10
2019-03-06T02:12:39.146Z,2.20
2019-03-06T02:15:17.675Z,2.10
2019-03-06T02:17:47.889Z,2.00
2019-03-06T02:20:18.344Z,1.90
2019-03-06T02:22:48.439Z,1.90
2019-03-06T02:25:18.432Z,1.80
2019-03-06T02:27:48.433Z,1.90
2019-03-06T02:30:23.941Z,1.80
2019-03-06T02:32:54.015Z,1.90
2019-03-06T02:35:24.040Z,1.80
2019-03-06T02:37:54.397Z,1.70
2019-03-06T02:40:24.319Z,1.70
2019-03-06T02:42:54.354Z,1.70
2019-03-06T02:45:24.458Z,1.80
2019-03-06T02:47:54.518Z,2.00
2019-03-06T02:50:24.733Z,2.00
2019-03-06T02:52:54.773Z,2.00
2019-03-06T02:55:24.748Z,1.90
2019-03-06T02:58:08.513Z,1.70
2019-03-06T03:00:40.205Z,1.70
2019-03-06T03:03:17.665Z,1.70
2019-03-06T03:05:49.206Z,1.70
2019-03-06T03:08:19.271Z,1.70
2019-03-06T03:10:49.574Z,1.70
2019-03-06T03:13:19.561Z,1.80
2019-03-06T03:15:49.585Z,1.70
2019-03-06T03:18:20.759Z,1.90
2019-03-06T03:20:50.834Z,1.90
2019-03-06T03:23:20.813Z,1.80
2019-03-06T03:25:50.789Z,1.80
2019-03-06T03:28:24.134Z,1.70
2019-03-06T03:30:54.231Z,1.60
2019-03-06T03:33:25.179Z,1.60
2019-03-06T03:35:55.343Z,1.90
2019-03-06T03:38:25.415Z,2.20
2019-03-06T03:40:55.480Z,2.00
2019-03-06T03:43:25.405Z,2.00
2019-03-06T03:45:55.782Z,1.90
2019-03-06T03:48:27.406Z,1.70
2019-03-06T03:50:57.535Z,1.60
2019-03-06T03:53:27.609Z,1.50
2019-03-06T03:55:57.745Z,1.40
2019-03-06T03:58:27.884Z,1.50
2019-03-06T04:00:57.861Z,1.60
2019-03-06T04:03:27.905Z,1.40
2019-03-06T04:05:57.965Z,1.40
2019-03-06T04:08:28.042Z,1.40
2019-03-06T04:10:58.148Z,1.50
2019-03-06T04:13:28.324Z,1.40
2019-03-06T04:15:58.314Z,1.20
2019-03-06T04:18:28.395Z,1.30
2019-03-06T04:20:58.510Z,1.30
2019-03-06T04:23:28.591Z,1.40
2019-03-06T04:25:58.499Z,1.30
2019-03-06T04:28:28.523Z,1.40
2019-03-06T04:30:58.504Z,1.60
2019-03-06T04:33:29.518Z,1.90
2019-03-06T04:36:00.819Z,2.10
2019-03-06T04:38:30.841Z,2.30
2019-03-06T04:41:00.816Z,2.50
2019-03-06T04:43:31.916Z,2.70
2019-03-06T04:46:02.007Z,2.90
2019-03-06T04:48:32.124Z,3.10
2019-03-06T04:51:02.234Z,3.00
2019-03-06T04:53:32.303Z,3.00
2019-03-06T04:56:03.579Z,3.00
2019-03-06T04:58:33.499Z,3.20
2019-03-06T05:01:03.592Z,3.30
2019-03-06T05:03:33.612Z,3.40
2019-03-06T05:06:03.760Z,3.50
2019-03-06T05:08:33.867Z,3.70
2019-03-06T05:11:03.973Z,4.00
2019-03-06T05:13:33.956Z,4.00
2019-03-06T05:16:04.109Z,4.10
2019-03-06T05:18:35.685Z,4.20
2019-03-06T05:21:05.747Z,4.20
2019-03-06T05:23:35.697Z,4.30
2019-03-06T05:26:06.707Z,4.30
2019-03-06T05:28:36.805Z,4.40
2019-03-06T05:31:07.777Z,4.40
2019-03-06T05:33:37.897Z,4.40
2019-03-06T05:36:30.706Z,4.50
2019-03-06T05:39:11.093Z,4.60
2019-03-06T05:41:41.158Z,4.70
2019-03-06T05:44:11.363Z,4.70
2019-03-06T05:46:41.436Z,4.70
2019-03-06T05:49:11.891Z,4.60
2019-03-06T05:51:41.895Z,4.70
2019-03-06T05:54:14.448Z,4.60
2019-03-06T05:56:44.479Z,4.60
2019-03-06T05:59:14.440Z,4.70
2019-03-06T06:01:44.615Z,4.80
2019-03-06T06:04:14.595Z,5.00
2019-03-06T06:06:44.664Z,5.00
2019-03-06T06:09:14.771Z,5.00
2019-03-06T06:11:45.081Z,5.10
2019-03-06T06:14:15.214Z,5.20
2019-03-06T06:16:45.222Z,5.20
2019-03-06T06:19:15.389Z,5.30
2019-03-06T06:21:49.890Z,5.40
2019-03-06T06:24:20.032Z,5.50
2019-03-06T06:26:50.199Z,5.50
2019-03-06T06:29:20.360Z,5.70
2019-03-06T06:31:50.530Z,5.70
2019-03-06T06:34:20.823Z,5.60
2019-03-06T06:36:50.822Z,5.70
2019-03-06T06:39:22.062Z,5.70
2019-03-06T06:41:52.168Z,5.80
2019-03-06T06:44:22.313Z,5.90
2019-03-06T06:46:52.488Z,6.00
2019-03-06T06:49:22.493Z,6.10
2019-03-06T06:52:04.597Z,6.20
2019-03-06T06:54:50.445Z,6.30
2019-03-06T06:57:41.676Z,6.30
2019-03-06T07:00:42.528Z,6.40
2019-03-06T07:03:42.902Z,6.30
2019-03-06T07:06:14.642Z,6.30
2019-03-06T07:09:02.421Z,6.30
2019-03-06T07:11:41.744Z,6.50
2019-03-06T07:14:22.297Z,6.50
2019-03-06T07:17:11.854Z,6.50
2019-03-06T07:19:43.519Z,6.60
2019-03-06T07:22:15.152Z,6.70
2019-03-06T07:25:01.819Z,6.50
2019-03-06T07:27:33.435Z,6.70
2019-03-06T07:30:21.925Z,6.50
2019-03-06T07:33:05.367Z,6.60
2019-03-06T07:35:56.874Z,6.90
2019-03-06T07:38:27.246Z,6.90
2019-03-06T07:41:14.889Z,6.90
2019-03-06T07:43:53.155Z,6.80
2019-03-06T07:46:40.583Z,6.90
2019-03-06T07:49:11.990Z,7.10
2019-03-06T07:51:49.714Z,7.20
2019-03-06T07:54:21.267Z,7.40
2019-03-06T07:57:04.816Z,7.50
2019-03-06T07:59:34.834Z,7.80
2019-03-06T08:02:23.243Z,8.10
2019-03-06T08:04:56.428Z,8.00
2019-03-06T08:07:26.406Z,7.90
2019-03-06T08:09:56.340Z,7.70
2019-03-06T08:12:32.991Z,7.40
2019-03-06T08:15:22.559Z,7.50
2019-03-06T08:17:54.175Z,7.30
2019-03-06T08:20:31.492Z,7.40
2019-03-06T08:23:17.515Z,7.80
2019-03-06T08:25:49.895Z,8.10
2019-03-06T08:28:19.795Z,8.20
2019-03-06T08:31:06.333Z,8.70
2019-03-06T08:33:36.224Z,9.10
2019-03-06T08:36:06.215Z,9.10
2019-03-06T08:38:36.055Z,9.00
2019-03-06T08:41:06.136Z,9.10
2019-03-06T08:43:37.287Z,9.60
2019-03-06T08:46:11.640Z,10.30
2019-03-06T08:48:43.263Z,10.00
2019-03-06T08:51:18.806Z,9.90
2019-03-06T08:54:06.819Z,9.50
2019-03-06T08:56:40.177Z,9.20
2019-03-06T08:59:20.357Z,9.60
2019-03-06T09:02:15.516Z,10.10
2019-03-06T09:04:55.141Z,9.70
2019-03-06T09:07:32.696Z,9.50
2019-03-06T09:10:09.433Z,9.40
2019-03-06T09:12:50.061Z,8.90
2019-03-06T09:15:31.762Z,9.50
2019-03-06T09:18:17.637Z,9.70
2019-03-06T09:20:52.014Z,9.90
2019-03-06T09:23:35.650Z,10.00
2019-03-06T09:26:23.686Z,10.30
2019-03-06T09:29:01.102Z,10.60
2019-03-06T09:31:40.537Z,10.60
2019-03-06T09:34:12.178Z,11.10
2019-03-06T09:36:46.439Z,11.10
2019-03-06T09:39:34.881Z,11.00
2019-03-06T09:42:15.525Z,11.10
2019-03-06T09:44:49.870Z,11.30
2019-03-06T09:47:30.251Z,11.30
2019-03-06T09:50:02.127Z,11.10
2019-03-06T09:52:40.293Z,11.40
2019-03-06T09:55:18.032Z,11.70
2019-03-06T09:57:52.619Z,11.70
2019-03-06T10:00:30.236Z,12.20
2019-03-06T10:03:19.651Z,12.20
2019-03-06T10:05:54.037Z,12.10
2019-03-06T10:08:25.658Z,12.30
2019-03-06T10:10:57.966Z,12.30
2019-03-06T10:13:32.577Z,12.60
2019-03-06T10:16:08.251Z,12.90
2019-03-06T10:18:42.669Z,12.70
2019-03-06T10:21:12.671Z,12.50
2019-03-06T10:23:42.654Z,12.60
2019-03-06T10:26:12.578Z,12.80
2019-03-06T10:28:42.635Z,13.20
2019-03-06T10:31:12.901Z,13.30
2019-03-06T10:33:42.952Z,13.20
2019-03-06T10:36:13.409Z,13.40
2019-03-06T10:38:43.376Z,13.60
2019-03-06T10:41:13.774Z,13.80
2019-03-06T10:43:49.053Z,13.60
2019-03-06T10:46:15.508Z,13.30
2019-03-06T10:48:45.519Z,13.50
2019-03-06T10:51:16.361Z,13.60
2019-03-06T10:53:54.727Z,13.70
2019-03-06T10:56:32.217Z,13.70
2019-03-06T10:59:02.743Z,13.80
2019-03-06T11:01:36.304Z,13.90
2019-03-06T11:04:23.943Z,13.80
2019-03-06T11:06:56.934Z,13.70
2019-03-06T11:09:31.427Z,14.10
2019-03-06T11:12:09.307Z,13.90
2019-03-06T11:14:44.624Z,13.90
2019-03-06T11:17:20.230Z,14.10
2019-03-06T11:19:56.639Z,14.00
2019-03-06T11:22:36.557Z,13.80
2019-03-06T11:25:16.083Z,13.90
2019-03-06T11:27:46.423Z,13.90
2019-03-06T11:30:19.742Z,14.20
2019-03-06T11:32:54.372Z,14.30
2019-03-06T11:35:22.939Z,14.40
2019-03-06T11:37:54.644Z,14.20
2019-03-06T11:40:24.969Z,14.20
2019-03-06T11:42:55.796Z,14.50
2019-03-06T11:45:26.747Z,14.70
2019-03-06T11:47:59.948Z,14.70
2019-03-06T11:50:30.891Z,14.60
2019-03-06T11:53:05.690Z,15.00
2019-03-06T11:55:45.486Z,15.30
2019-03-06T11:58:23.091Z,15.10
2019-03-06T12:00:55.653Z,14.90
2019-03-06T12:03:26.305Z,14.80
2019-03-06T12:05:56.727Z,14.60
2019-03-06T12:08:27.252Z,15.20
2019-03-06T12:11:02.473Z,15.70
2019-03-06T12:13:34.766Z,15.60
2019-03-06T12:16:12.737Z,15.80
2019-03-06T12:18:48.140Z,15.60
2019-03-06T12:21:18.047Z,15.60
2019-03-06T12:23:49.210Z,16.10
2019-03-06T12:26:19.415Z,16.20
2019-03-06T12:28:49.577Z,15.90
2019-03-06T12:31:19.473Z,15.80
2019-03-06T12:33:49.547Z,15.50
2019-03-06T12:36:19.541Z,16.30
2019-03-06T12:38:49.491Z,16.10
2019-03-06T12:41:19.577Z,16.20
2019-03-06T12:43:49.638Z,15.90
2019-03-06T12:46:23.826Z,16.00
2019-03-06T12:48:55.953Z,15.90
2019-03-06T12:51:26.010Z,16.30
2019-03-06T12:53:56.000Z,16.20
2019-03-06T12:56:25.917Z,15.80
2019-03-06T12:58:55.874Z,16.10
2019-03-06T13:01:26.905Z,16.20
2019-03-06T13:03:56.962Z,16.60
2019-03-06T13:06:27.067Z,16.80
2019-03-06T13:08:57.048Z,16.90
2019-03-06T13:11:27.036Z,17.00
2019-03-06T13:13:56.973Z,16.60
2019-03-06T13:16:26.866Z,16.70
2019-03-06T13:18:56.966Z,16.50
2019-03-06T13:21:26.936Z,16.70
2019-03-06T13:23:59.143Z,16.70
2019-03-06T13:26:30.327Z,16.90
2019-03-06T13:29:00.424Z,16.60
2019-03-06T13:31:30.474Z,15.90
2019-03-06T13:34:14.342Z,16.10
2019-03-06T13:36:44.399Z,16.10
2019-03-06T13:39:14.404Z,16.70
2019-03-06T13:41:44.551Z,16.70
2019-03-06T13:44:14.738Z,16.60
2019-03-06T13:46:45.859Z,16.30
2019-03-06T13:49:15.908Z,16.40
2019-03-06T13:51:45.908Z,16.40
2019-03-06T13:54:15.882Z,16.60
2019-03-06T13:56:46.892Z,16.40
2019-03-06T13:59:17.052Z,16.60
2019-03-06T14:01:47.138Z,16.40
2019-03-06T14:04:17.182Z,16.20
2019-03-06T14:06:47.095Z,16.50
2019-03-06T14:09:17.301Z,16.90
2019-03-06T14:11:47.571Z,17.20
2019-03-06T14:14:17.691Z,16.60
2019-03-06T14:16:48.762Z,16.60
2019-03-06T14:19:18.752Z,16.50
2019-03-06T14:21:48.730Z,16.70
2019-03-06T14:24:18.960Z,16.60
2019-03-06T14:26:56.350Z,16.70
2019-03-06T14:29:26.447Z,16.50
2019-03-06T14:31:58.024Z,16.80
2019-03-06T14:34:28.072Z,17.20
2019-03-06T14:36:58.520Z,17.10
2019-03-06T14:39:30.149Z,17.00
2019-03-06T14:42:00.407Z,16.60
2019-03-06T14:44:30.340Z,16.70
2019-03-06T14:47:00.337Z,16.20
2019-03-06T14:49:30.486Z,16.20
2019-03-06T14:52:07.324Z,16.60
2019-03-06T14:54:32.229Z,16.80
2019-03-06T14:57:02.219Z,16.70
2019-03-06T14:59:32.274Z,16.90
2019-03-06T15:02:02.432Z,16.60
2019-03-06T15:04:32.433Z,16.20
2019-03-06T15:07:02.407Z,16.00
2019-03-06T15:09:32.468Z,15.70
2019-03-06T15:12:02.589Z,15.70
2019-03-06T15:14:36.003Z,15.90
2019-03-06T15:17:04.221Z,15.90
2019-03-06T15:19:34.276Z,16.10
2019-03-06T15:22:04.246Z,16.00
2019-03-06T15:24:40.888Z,16.20
2019-03-06T15:27:05.906Z,16.20
2019-03-06T15:29:36.036Z,16.20
2019-03-06T15:32:06.048Z,16.10
2019-03-06T15:34:36.027Z,16.00
2019-03-06T15:37:05.959Z,15.70
2019-03-06T15:39:44.522Z,15.70
2019-03-06T15:42:07.568Z,15.70
2019-03-06T15:44:37.606Z,15.60
2019-03-06T15:47:07.515Z,15.60
2019-03-06T15:49:37.442Z,15.50
2019-03-06T15:52:07.910Z,15.10
2019-03-06T15:54:37.952Z,15.10
2019-03-06T15:57:09.982Z,15.00
2019-03-06T15:59:39.569Z,15.00
2019-03-06T16:02:09.600Z,14.90
2019-03-06T16:04:39.635Z,14.80
2019-03-06T16:07:09.540Z,14.60
2019-03-06T16:09:39.817Z,14.60
2019-03-06T16:12:09.658Z,14.50
2019-03-06T16:14:39.749Z,14.40
2019-03-06T16:17:09.729Z,14.40
2019-03-06T16:19:39.725Z,14.30
2019-03-06T16:22:09.572Z,14.10
2019-03-06T16:24:39.697Z,14.00
2019-03-06T16:27:09.683Z,13.90
2019-03-06T16:29:39.663Z,13.80
2019-03-06T16:32:09.652Z,13.70
2019-03-06T16:34:39.557Z,13.60
2019-03-06T16:37:09.655Z,13.50
2019-03-06T16:39:39.776Z,13.40
2019-03-06T16:42:09.751Z,13.30
2019-03-06T16:44:39.664Z,13.10
2019-03-06T16:47:09.564Z,13.00
2019-03-06T16:49:39.994Z,13.00
2019-03-06T16:52:09.995Z,12.90
2019-03-06T16:54:40.727Z,12.80
2019-03-06T16:57:10.799Z,12.60
2019-03-06T16:59:40.837Z,12.70
2019-03-06T17:02:10.935Z,12.60
2019-03-06T17:04:43.514Z,12.40
2019-03-06T17:07:13.472Z,12.20
2019-03-06T17:09:43.573Z,12.00
2019-03-06T17:12:13.542Z,11.90
2019-03-06T17:14:43.608Z,11.80
2019-03-06T17:17:13.592Z,11.90
2019-03-06T17:19:44.659Z,11.90
2019-03-06T17:22:14.703Z,11.70
2019-03-06T17:24:44.709Z,11.70
2019-03-06T17:27:14.807Z,11.70
2019-03-06T17:29:45.135Z,11.60
2019-03-06T17:32:15.388Z,11.60
2019-03-06T17:34:45.371Z,11.60
2019-03-06T17:37:15.419Z,11.70
2019-03-06T17:39:45.393Z,11.60
2019-03-06T17:42:17.450Z,11.60
2019-03-06T17:44:47.438Z,11.50
2019-03-06T17:47:17.486Z,11.60
2019-03-06T17:49:47.596Z,11.60
2019-03-06T17:52:17.639Z,11.60
2019-03-06T17:54:47.692Z,11.50
2019-03-06T17:57:17.766Z,11.50
2019-03-06T17:59:47.908Z,11.50
2019-03-06T18:02:17.943Z,11.50
2019-03-06T18:04:48.111Z,11.40
2019-03-06T18:07:18.258Z,11.70
2019-03-06T18:09:53.407Z,11.70
2019-03-06T18:12:24.977Z,11.70
2019-03-06T18:14:55.046Z,11.60
2019-03-06T18:17:25.046Z,11.60
2019-03-06T18:19:56.092Z,11.50
2019-03-06T18:22:29.209Z,11.50
2019-03-06T18:24:59.317Z,11.50
2019-03-06T18:27:31.567Z,11.40
2019-03-06T18:32:52.672Z,11.70
2019-03-06T18:35:22.963Z,11.60
2019-03-06T18:37:53.025Z,11.60
2019-03-06T18:40:26.614Z,11.50
2019-03-06T18:42:56.680Z,11.40
2019-03-06T18:45:26.883Z,11.30
2019-03-06T18:47:57.074Z,11.30
2019-03-06T18:50:27.248Z,11.40
2019-03-06T18:52:59.246Z,11.50
2019-03-06T18:55:29.454Z,11.50
2019-03-06T18:57:59.738Z,11.50
2019-03-06T19:00:31.086Z,11.50
2019-03-06T19:03:05.535Z,11.40
2019-03-06T19:05:36.971Z,11.40
2019-03-06T19:08:08.503Z,11.50
2019-03-06T19:10:38.888Z,11.60
2019-03-06T19:13:17.252Z,11.60
2019-03-06T19:15:51.592Z,11.70
2019-03-06T19:18:21.916Z,11.60
2019-03-06T19:20:52.131Z,11.60
2019-03-06T19:23:22.304Z,11.60
2019-03-06T19:26:02.014Z,11.40
2019-03-06T19:28:32.173Z,11.50
2019-03-06T19:31:02.267Z,11.60
2019-03-06T19:33:32.480Z,11.70
2019-03-06T19:36:02.482Z,11.80
2019-03-06T19:38:32.566Z,11.80
2019-03-06T19:41:02.636Z,11.80
2019-03-06T19:43:33.220Z,11.70
2019-03-06T19:46:03.283Z,11.70
2019-03-06T19:48:33.466Z,11.60
2019-03-06T19:51:03.575Z,11.60
2019-03-06T19:53:33.447Z,11.60
2019-03-06T19:56:03.640Z,11.70
2019-03-06T19:58:33.779Z,11.70
2019-03-06T20:01:03.615Z,11.60
2019-03-06T20:03:33.755Z,11.60
2019-03-06T20:06:03.862Z,11.60
2019-03-06T20:08:33.998Z,11.50
2019-03-06T20:11:04.049Z,11.50
2019-03-06T20:13:34.105Z,11.60
2019-03-06T20:16:04.566Z,11.60
2019-03-06T20:18:34.761Z,11.50
2019-03-06T20:21:04.865Z,11.50
2019-03-06T20:23:35.045Z,11.40
2019-03-06T20:26:13.619Z,11.40
2019-03-06T20:28:36.757Z,11.50
2019-03-06T20:31:06.867Z,11.40
2019-03-06T20:33:36.853Z,11.30
2019-03-06T20:36:08.051Z,11.30
2019-03-06T20:38:38.160Z,11.40
2019-03-06T20:41:08.430Z,11.40
2019-03-06T20:43:38.599Z,11.50
2019-03-06T20:46:08.794Z,11.50
2019-03-06T20:48:39.063Z,11.50
2019-03-06T20:51:09.525Z,11.60
2019-03-06T20:53:39.787Z,11.50
2019-03-06T20:56:09.929Z,11.50
2019-03-06T20:58:40.701Z,11.40
2019-03-06T21:01:10.840Z,11.40
2019-03-06T21:03:41.112Z,11.40
2019-03-06T21:06:12.339Z,11.30
2019-03-06T21:08:42.498Z,11.30
2019-03-06T21:11:12.610Z,11.30
2019-03-06T21:13:42.694Z,11.30
2019-03-06T21:16:12.821Z,11.20
2019-03-06T21:18:43.116Z,11.30
2019-03-06T21:21:15.027Z,11.30
2019-03-06T21:23:45.044Z,11.30
2019-03-06T21:26:15.160Z,11.20
2019-03-06T21:28:45.269Z,11.20
2019-03-06T21:31:15.462Z,11.10
2019-03-06T21:33:45.590Z,11.10
2019-03-06T21:36:15.713Z,11.00
2019-03-06T21:38:45.841Z,10.90
2019-03-06T21:41:15.980Z,10.80
2019-03-06T21:43:46.010Z,10.80
2019-03-06T21:46:16.291Z,10.90
2019-03-06T21:48:46.203Z,10.90
2019-03-06T21:51:16.348Z,10.90
2019-03-06T21:53:48.639Z,10.90
2019-03-06T21:56:18.753Z,10.90
2019-03-06T21:58:48.886Z,11.00
2019-03-06T22:01:18.964Z,11.00
2019-03-06T22:03:49.046Z,11.00
2019-03-06T22:06:19.005Z,10.90
2019-03-06T22:08:48.985Z,11.00
2019-03-06T22:11:19.055Z,10.90
2019-03-06T22:13:49.012Z,10.90
2019-03-06T22:16:19.071Z,10.90
2019-03-06T22:18:49.114Z,11.00
2019-03-06T22:21:19.102Z,11.10
2019-03-06T22:23:48.993Z,11.10
2019-03-06T22:26:19.084Z,11.20
2019-03-06T22:28:49.076Z,11.20
2019-03-06T22:31:19.094Z,11.20
2019-03-06T22:33:48.955Z,11.20
2019-03-06T22:36:18.949Z,11.20
2019-03-06T22:38:48.859Z,11.20
2019-03-06T22:41:18.863Z,11.10
2019-03-06T22:43:48.905Z,11.10
2019-03-06T22:46:18.920Z,11.00
2019-03-06T22:48:48.981Z,10.90
2019-03-06T22:51:19.029Z,10.90
2019-03-06T22:53:49.357Z,11.00
2019-03-06T22:56:19.430Z,11.10
2019-03-06T22:58:49.347Z,11.10
2019-03-06T23:01:22.589Z,11.10
2019-03-06T23:03:54.778Z,11.20
2019-03-06T23:06:24.790Z,11.20
2019-03-06T23:08:54.831Z,11.30
2019-03-06T23:11:24.808Z,11.30
2019-03-06T23:13:54.780Z,11.30
2019-03-06T23:16:24.840Z,11.20
2019-03-06T23:18:54.821Z,11.20
2019-03-06T23:21:24.977Z,11.20
2019-03-06T23:23:55.005Z,11.20
2019-03-06T23:26:25.019Z,11.20
2019-03-06T23:28:55.066Z,11.20
2019-03-06T23:31:25.037Z,11.20
2019-03-06T23:33:55.064Z,11.20
2019-03-06T23:36:25.119Z,11.30
2019-03-06T23:38:55.161Z,11.40
2019-03-06T23:41:25.381Z,11.40
2019-03-06T23:43:55.388Z,11.40
2019-03-06T23:46:25.402Z,11.40
2019-03-06T23:48:55.541Z,11.50
2019-03-06T23:51:27.357Z,11.50
2019-03-06T23:53:57.212Z,11.50
2019-03-06T23:56:27.269Z,11.50
2019-03-06T23:58:57.205Z,11.50
